Time;durP1;ratioP1;P1;durP2;ratioP2;P2;SDS_P1;SDS_P2;PMS_P1;PMS_P2;Temp;Humidity;BMP_temperature;BMP_pressure;BME280_temperature;BME280_humidity;BME280_pressure;Samples;Min_cycle;Max_cycle;Signal;HPM_P1;HPM_P2
2022/01/14 00:00:57;;;;;;;62.90;31.20;;;-1.00;99.90;;;;;;5011945;28;20041;-76
2022/01/14 00:03:23;;;;;;;60.13;32.13;;;-0.70;99.90;;;;;;5014577;28;20048;-76
2022/01/14 00:05:49;;;;;;;60.45;30.77;;;-0.90;99.90;;;;;;5011986;28;20034;-78
2022/01/14 00:08:15;;;;;;;64.45;33.47;;;-0.90;99.90;;;;;;5027515;28;20451;-75
2022/01/14 00:10:47;;;;;;;66.22;32.78;;;-0.80;99.90;;;;;;5011594;28;20050;-76
2022/01/14 00:13:37;;;;;;;;;;;-0.90;99.90;;;;;;5027170;28;20054;-76
2022/01/14 00:15:58;;;;;;;54.40;28.88;;;-0.20;99.90;;;;;;5011384;28;19916;-75
2022/01/14 00:18:24;;;;;;;68.00;32.40;;;-1.00;99.90;;;;;;5011166;28;20033;-76
2022/01/14 00:20:49;;;;;;;65.15;33.25;;;-1.20;99.90;;;;;;5011739;28;20041;-76
2022/01/14 00:23:17;;;;;;;62.38;31.95;;;-1.10;99.90;;;;;;5011802;28;20026;-76
2022/01/14 00:34:06;;;;;;;59.85;31.63;;;-1.30;99.90;;;;;;5025280;28;20028;-75
2022/01/14 00:36:31;;;;;;;66.10;31.27;;;-1.40;99.90;;;;;;5029026;28;20444;-76
2022/01/14 00:38:57;;;;;;;62.90;30.27;;;-1.40;99.90;;;;;;5014879;28;20022;-75
2022/01/14 00:41:23;;;;;;;64.85;32.15;;;-1.30;99.90;;;;;;5015558;28;20026;-76
2022/01/14 00:43:52;;;;;;;69.45;31.80;;;-1.30;99.90;;;;;;5016914;28;20417;-76
2022/01/14 00:46:18;;;;;;;74.50;34.42;;;0.30;99.90;;;;;;5014617;28;20490;-75
2022/01/14 00:48:44;;;;;;;78.50;33.15;;;-1.20;99.90;;;;;;5014625;28;20044;-75
2022/01/14 00:51:09;;;;;;;67.90;33.08;;;-1.20;99.90;;;;;;5015995;28;20026;-74
2022/01/14 00:53:35;;;;;;;71.00;31.45;;;-1.20;99.90;;;;;;5019248;28;20030;-75
2022/01/14 00:56:20;;;;;;;66.15;31.80;;;-1.40;99.90;;;;;;5015288;28;20088;-75
2022/01/14 01:01:30;;;;;;;66.22;32.05;;;-1.50;99.90;;;;;;5015547;28;20398;-75
2022/01/14 01:03:56;;;;;;;67.97;31.17;;;-1.50;99.90;;;;;;5014839;28;20030;-75
2022/01/14 01:06:22;;;;;;;74.07;32.42;;;-1.50;99.90;;;;;;5014948;28;20442;-75
2022/01/14 01:08:50;;;;;;;68.47;31.73;;;-1.50;99.90;;;;;;5014175;28;20034;-75
2022/01/14 01:11:23;;;;;;;73.72;33.25;;;-1.40;99.90;;;;;;5013682;28;20478;-75
2022/01/14 01:13:58;;;;;;;;;;;-1.50;99.90;;;;;;5027324;28;20021;-74
2022/01/14 01:16:23;;;;;;;72.47;32.08;;;-1.50;99.90;;;;;;5016118;28;19916;-75
2022/01/14 01:18:49;;;;;;;72.15;32.40;;;-1.50;99.90;;;;;;5014045;28;20037;-75
2022/01/14 01:21:15;;;;;;;71.63;33.95;;;-1.40;99.90;;;;;;5014803;28;20034;-75
2022/01/14 01:23:40;;;;;;;74.80;33.40;;;-1.30;99.90;;;;;;5024437;28;20057;-75
2022/01/14 01:26:15;;;;;;;73.78;32.97;;;-1.40;99.90;;;;;;5014630;28;20034;-75
2022/01/14 01:28:56;;;;;;;72.88;32.22;;;-1.40;99.90;;;;;;5013793;28;20506;-75
2022/01/14 01:31:38;;;;;;;71.00;32.30;;;-1.40;99.90;;;;;;5014711;28;20061;-75
2022/01/14 01:34:18;;;;;;;83.53;32.80;;;-1.50;99.90;;;;;;5017412;28;20272;-75
2022/01/14 01:36:46;;;;;;;71.30;31.42;;;-1.60;99.90;;;;;;5014627;28;20093;-75
2022/01/14 01:39:14;;;;;;;73.60;30.38;;;-1.60;99.90;;;;;;5013766;28;20030;-75
2022/01/14 01:41:46;;;;;;;70.00;30.25;;;-1.80;99.90;;;;;;5014284;28;20026;-75
2022/01/14 01:44:14;;;;;;;75.25;31.83;;;-1.80;99.90;;;;;;5021168;28;20498;-75
2022/01/14 01:46:42;;;;;;;71.55;29.80;;;-1.90;99.90;;;;;;5013981;28;20029;-74
2022/01/14 01:49:09;;;;;;;70.75;31.38;;;-1.90;99.90;;;;;;5012998;28;20026;-74
2022/01/14 01:51:36;;;;;;;77.95;33.90;;;-0.50;99.90;;;;;;5014294;28;20042;-75
2022/01/14 01:54:02;;;;;;;76.65;33.30;;;-2.00;99.90;;;;;;5012505;28;20065;-74
2022/01/14 01:56:28;;;;;;;73.10;32.00;;;-1.90;99.90;;;;;;5029501;28;20030;-74
2022/01/14 01:58:56;;;;;;;90.30;33.33;;;-1.90;99.90;;;;;;5013134;28;20041;-75
2022/01/14 02:01:23;;;;;;;77.88;33.45;;;-1.80;99.90;;;;;;5014083;28;20022;-75
2022/01/14 02:03:48;;;;;;;96.18;33.78;;;-1.80;99.90;;;;;;5026156;28;20087;-74
2022/01/14 02:06:15;;;;;;;99.72;34.45;;;-1.80;99.90;;;;;;5014582;28;20042;-74
2022/01/14 02:08:40;;;;;;;108.75;34.30;;;0.30;99.90;;;;;;5012932;28;20208;-74
2022/01/14 02:11:06;;;;;;;150.27;37.25;;;-1.70;99.90;;;;;;5013753;28;20122;-74
2022/01/14 02:13:32;;;;;;;99.82;33.53;;;-1.70;99.90;;;;;;5023586;28;20025;-74
2022/01/14 02:23:45;;;;;;;125.85;36.13;;;-1.60;99.90;;;;;;5013472;28;20099;-74
2022/01/14 02:26:12;;;;;;;262.15;36.75;;;-1.50;99.90;;;;;;5013677;28;20032;-74
2022/01/14 02:28:39;;;;;;;88.50;35.70;;;-1.40;99.90;;;;;;5012435;28;20033;-74
2022/01/14 02:31:05;;;;;;;114.82;36.55;;;-1.50;99.90;;;;;;5013484;28;20041;-75
2022/01/14 02:33:31;;;;;;;91.28;34.95;;;-1.50;99.90;;;;;;5014129;28;20033;-74
2022/01/14 02:35:58;;;;;;;89.75;35.63;;;-1.30;99.90;;;;;;5012911;28;20029;-74
2022/01/14 02:38:24;;;;;;;102.57;35.90;;;-1.30;99.90;;;;;;5012744;28;20022;-74
2022/01/14 02:40:50;;;;;;;92.53;35.22;;;-1.30;99.90;;;;;;5012996;28;20036;-74
2022/01/14 02:43:17;;;;;;;94.97;34.65;;;-1.30;99.90;;;;;;5020547;28;20391;-74
2022/01/14 02:45:48;;;;;;;154.85;42.72;;;-1.20;99.90;;;;;;5032949;28;20490;-74
2022/01/14 02:48:13;;;;;;;150.40;39.05;;;-1.20;99.90;;;;;;5012505;28;20037;-73
2022/01/14 02:50:43;;;;;;;84.50;35.78;;;-1.20;99.90;;;;;;5012528;28;20379;-74
2022/01/14 02:53:25;;;;;;;170.95;38.47;;;-1.10;99.90;;;;;;5012780;28;20022;-74
2022/01/14 02:55:56;;;;;;;94.90;36.60;;;-1.10;99.90;;;;;;5012833;28;20034;-75
2022/01/14 02:58:24;;;;;;;93.10;38.08;;;-1.10;99.90;;;;;;5012138;28;20030;-74
2022/01/14 03:00:52;;;;;;;92.40;36.30;;;-1.10;99.90;;;;;;5012727;28;20038;-75
2022/01/14 03:03:22;;;;;;;153.82;40.20;;;-1.20;99.90;;;;;;5011679;28;20471;-75
2022/01/14 03:05:49;;;;;;;125.10;37.88;;;-1.10;99.90;;;;;;5012499;28;20552;-75
2022/01/14 03:08:17;;;;;;;148.18;39.97;;;-1.10;99.90;;;;;;5012553;28;20068;-75
2022/01/14 03:10:45;;;;;;;139.73;36.90;;;-1.00;99.90;;;;;;5020387;28;20060;-75
2022/01/14 03:13:11;;;;;;;132.38;36.03;;;-1.00;99.90;;;;;;5027945;28;20029;-75
2022/01/14 03:15:37;;;;;;;90.63;36.65;;;-1.10;99.90;;;;;;5012386;28;20475;-75
2022/01/14 03:18:02;;;;;;;86.00;36.88;;;-1.10;99.90;;;;;;5012420;28;20034;-75
2022/01/14 03:20:48;;;;;;;81.18;32.45;;;-1.10;99.90;;;;;;5011966;28;20037;-74
2022/01/14 03:23:15;;;;;;;97.70;36.45;;;-1.20;99.90;;;;;;5012643;28;20113;-75
2022/01/14 03:25:51;;;;;;;247.75;40.38;;;-1.30;99.90;;;;;;5012642;28;20029;-75
2022/01/14 03:28:22;;;;;;;127.55;37.47;;;-1.10;99.90;;;;;;5014136;28;20922;-74
2022/01/14 03:30:49;;;;;;;144.23;37.85;;;-1.10;99.90;;;;;;4992749;28;20088;-74
2022/01/14 03:33:15;;;;;;;133.63;34.72;;;-1.10;99.90;;;;;;4992833;28;20444;-74
2022/01/14 03:35:41;;;;;;;90.50;33.22;;;-1.10;99.90;;;;;;5008609;28;20097;-75
2022/01/14 03:38:07;;;;;;;95.10;34.15;;;-1.10;99.90;;;;;;5013122;28;20034;-75
2022/01/14 03:40:32;;;;;;;78.85;32.92;;;-1.40;99.90;;;;;;5031136;28;20672;-75
2022/01/14 03:42:58;;;;;;;83.32;35.25;;;-1.30;99.90;;;;;;5031952;28;20032;-75
2022/01/14 03:45:24;;;;;;;87.18;35.13;;;-1.20;99.90;;;;;;5017311;28;20384;-75
2022/01/14 03:47:50;;;;;;;101.07;35.83;;;-1.20;99.90;;;;;;5012227;28;20121;-75
2022/01/14 03:50:15;;;;;;;78.18;34.08;;;-1.20;99.90;;;;;;5030183;28;20030;-75
2022/01/14 03:52:41;;;;;;;85.65;36.20;;;0.10;99.90;;;;;;5031875;28;20026;-75
2022/01/14 03:55:07;;;;;;;95.85;38.10;;;-1.30;99.90;;;;;;5020370;28;20026;-75
2022/01/14 03:57:33;;;;;;;67.75;33.08;;;-1.20;99.90;;;;;;5012081;28;20049;-75
2022/01/14 03:59:58;;;;;;;103.68;35.63;;;-1.10;99.90;;;;;;5013013;28;20026;-75
2022/01/14 04:02:24;;;;;;;73.53;33.72;;;-1.10;99.90;;;;;;5011983;28;20036;-74
2022/01/14 04:04:49;;;;;;;78.57;33.75;;;-1.10;99.90;;;;;;5011699;28;20167;-74
2022/01/14 04:07:15;;;;;;;76.75;33.95;;;-1.10;99.90;;;;;;5011893;28;20030;-75
2022/01/14 04:09:41;;;;;;;72.95;32.78;;;-1.10;99.90;;;;;;5010959;28;20042;-75
2022/01/14 04:12:09;;;;;;;80.97;32.05;;;-1.20;99.90;;;;;;5011740;28;20049;-75
2022/01/14 04:17:15;;;;;;;67.47;31.67;;;-1.00;99.90;;;;;;5012047;28;20441;-75
2022/01/14 04:19:41;;;;;;;83.00;32.03;;;-0.90;99.90;;;;;;5024949;28;20072;-75
2022/01/14 04:22:07;;;;;;;74.43;34.00;;;-1.10;99.90;;;;;;5031380;28;20100;-75
2022/01/14 04:24:32;;;;;;;79.10;32.35;;;-0.90;99.90;;;;;;5025192;28;20501;-75
2022/01/14 04:26:58;;;;;;;68.80;32.40;;;-1.00;99.90;;;;;;5011614;28;20092;-75
2022/01/14 04:29:23;;;;;;;78.00;31.92;;;-0.90;99.90;;;;;;5013983;28;20399;-75
2022/01/14 04:31:49;;;;;;;67.15;31.23;;;-0.90;99.90;;;;;;5011722;28;20084;-75
2022/01/14 04:34:16;;;;;;;72.38;31.10;;;-0.80;99.90;;;;;;5011576;28;20029;-75
2022/01/14 04:36:42;;;;;;;107.07;31.85;;;-0.80;99.90;;;;;;5011718;28;20022;-75
2022/01/14 04:39:09;;;;;;;72.20;30.17;;;-0.90;99.90;;;;;;5010938;28;20078;-75
2022/01/14 04:41:34;;;;;;;66.75;29.42;;;-0.90;99.90;;;;;;5011712;28;20025;-75
2022/01/14 04:44:01;;;;;;;92.72;30.52;;;-0.80;99.90;;;;;;5011249;28;20483;-75
2022/01/14 04:48:52;;;;;;;61.13;29.77;;;-0.90;99.90;;;;;;5012256;28;20490;-75
2022/01/14 04:51:20;;;;;;;92.45;29.88;;;-0.90;99.90;;;;;;5015759;28;20026;-75
2022/01/14 04:53:46;;;;;;;76.88;31.02;;;-0.90;99.90;;;;;;5014282;28;20049;-75
2022/01/14 04:56:12;;;;;;;111.47;30.40;;;-0.90;99.90;;;;;;5012014;28;20491;-75
2022/01/14 04:58:37;;;;;;;67.00;29.52;;;-0.90;99.90;;;;;;5011349;28;20030;-75
2022/01/14 05:01:03;;;;;;;71.63;29.15;;;-0.80;99.90;;;;;;5011837;28;20167;-75
2022/01/14 05:03:30;;;;;;;146.32;32.92;;;-0.90;99.90;;;;;;5011411;28;20034;-75
2022/01/14 05:05:58;;;;;;;131.07;33.38;;;-1.00;99.90;;;;;;5011387;28;20486;-75
2022/01/14 05:08:27;;;;;;;98.72;32.88;;;-1.10;99.90;;;;;;5010200;28;20495;-75
2022/01/14 05:13:24;;;;;;;83.00;30.77;;;-1.00;99.90;;;;;;5049861;28;20124;-75
2022/01/14 05:15:50;;;;;;;67.72;30.13;;;-0.90;99.90;;;;;;5050920;28;20086;-77
2022/01/14 05:18:16;;;;;;;63.50;29.55;;;-0.90;99.90;;;;;;5051090;28;20642;-77
2022/01/14 05:20:42;;;;;;;184.27;36.13;;;-0.70;99.90;;;;;;5034166;28;20055;-77
2022/01/14 05:23:08;;;;;;;110.15;34.50;;;-0.80;99.90;;;;;;5053731;28;20025;-77
2022/01/14 05:25:33;;;;;;;72.55;31.08;;;-0.90;99.90;;;;;;5055449;28;20066;-77
2022/01/14 05:27:59;;;;;;;83.38;30.77;;;-0.70;99.90;;;;;;5055421;28;20040;-77
2022/01/14 05:30:25;;;;;;;98.70;32.78;;;-0.70;99.90;;;;;;5040821;28;20026;-77
2022/01/14 05:32:53;;;;;;;102.82;33.30;;;-0.70;99.90;;;;;;5054122;28;20029;-77
2022/01/14 05:35:21;;;;;;;69.32;32.03;;;-0.70;99.90;;;;;;5054851;28;20445;-77
2022/01/14 05:37:47;;;;;;;101.45;32.97;;;-0.60;99.90;;;;;;5053572;28;20033;-77
2022/01/14 05:40:15;;;;;;;109.07;33.28;;;-0.50;99.90;;;;;;5058802;28;20025;-77
2022/01/14 05:42:42;;;;;;;82.85;32.22;;;-0.60;99.90;;;;;;5060783;28;20033;-77
2022/01/14 05:45:10;;;;;;;67.95;32.15;;;-0.60;99.90;;;;;;5059241;28;20029;-77
2022/01/14 05:47:38;;;;;;;67.93;31.60;;;-0.70;99.90;;;;;;5054524;28;20055;-77
2022/01/14 05:50:05;;;;;;;79.78;33.50;;;-0.70;99.90;;;;;;5053861;28;20459;-77
2022/01/14 05:52:31;;;;;;;69.57;31.90;;;-0.60;99.90;;;;;;5037050;28;20029;-77
2022/01/14 05:54:57;;;;;;;70.57;32.33;;;-0.60;99.90;;;;;;5053343;28;20040;-77
2022/01/14 05:57:22;;;;;;;85.53;32.78;;;-0.60;99.90;;;;;;5036773;28;20033;-77
2022/01/14 05:59:48;;;;;;;105.82;35.45;;;-0.60;99.90;;;;;;5040550;28;20509;-77
2022/01/14 06:02:15;;;;;;;87.45;31.30;;;-0.40;99.90;;;;;;5034037;28;20095;-76
2022/01/14 06:04:40;;;;;;;119.63;37.72;;;-0.40;99.90;;;;;;5040988;28;20044;-77
2022/01/14 06:07:06;;;;;;;102.75;34.45;;;-0.50;99.90;;;;;;5040008;28;20025;-77
2022/01/14 06:09:32;;;;;;;90.43;36.83;;;-0.40;99.90;;;;;;5057213;28;20025;-77
2022/01/14 06:11:57;;;;;;;99.25;35.10;;;-0.40;99.90;;;;;;5054755;28;20065;-78
2022/01/14 06:14:23;;;;;;;111.32;34.58;;;-0.30;99.90;;;;;;5054559;28;20642;-77
2022/01/14 06:16:49;;;;;;;80.53;35.03;;;-0.40;99.90;;;;;;5054297;28;20057;-78
2022/01/14 06:19:14;;;;;;;90.80;34.60;;;-0.50;99.90;;;;;;5053630;28;20021;-77
2022/01/14 06:21:40;;;;;;;85.80;37.22;;;-0.40;99.90;;;;;;5053576;28;20090;-77
2022/01/14 06:24:06;;;;;;;95.22;34.83;;;-0.40;99.90;;;;;;5053995;28;20056;-77
2022/01/14 06:26:32;;;;;;;91.97;34.95;;;-0.50;99.90;;;;;;5052758;28;20154;-77
2022/01/14 06:28:57;;;;;;;100.55;36.13;;;-0.40;99.90;;;;;;5048321;28;20022;-77
2022/01/14 06:31:23;;;;;;;98.18;33.30;;;-0.40;99.90;;;;;;5044490;28;20568;-77
2022/01/14 06:33:48;;;;;;;90.18;37.13;;;-0.40;99.90;;;;;;5052675;28;20028;-77
2022/01/14 06:36:14;;;;;;;100.45;37.60;;;-0.30;99.90;;;;;;5056954;28;20029;-77
2022/01/14 06:38:40;;;;;;;94.00;38.50;;;-0.20;99.90;;;;;;5059569;28;20736;-77
2022/01/14 06:41:06;;;;;;;116.05;40.33;;;-0.40;99.90;;;;;;5059767;28;20029;-78
2022/01/14 06:43:32;;;;;;;109.82;37.25;;;-0.40;99.90;;;;;;5059392;28;20039;-78
2022/01/14 06:45:57;;;;;;;107.00;38.50;;;-0.40;99.90;;;;;;5054695;28;20033;-78
2022/01/14 06:48:24;;;;;;;96.45;37.85;;;-0.30;99.90;;;;;;5020171;28;20036;-77
2022/01/14 06:50:50;;;;;;;102.57;38.95;;;-0.30;99.90;;;;;;5037228;28;20025;-78
2022/01/14 06:53:15;;;;;;;99.35;37.65;;;-0.50;99.90;;;;;;5054064;28;20486;-78
2022/01/14 06:55:41;;;;;;;106.03;38.63;;;-0.30;99.90;;;;;;5032518;28;20437;-78
2022/01/14 06:58:06;;;;;;;97.82;38.67;;;-0.20;99.90;;;;;;5033497;28;20045;-75
2022/01/14 07:00:33;;;;;;;95.78;37.58;;;-0.20;99.90;;;;;;5050023;28;20086;-78
2022/01/14 07:03:00;;;;;;;104.65;38.15;;;-0.20;99.90;;;;;;5052856;28;20082;-75
2022/01/14 07:05:26;;;;;;;114.40;41.08;;;-0.40;99.90;;;;;;5051983;28;20107;-77
2022/01/14 07:07:51;;;;;;;113.28;40.30;;;-0.20;99.90;;;;;;5046140;28;20600;-77
2022/01/14 07:10:17;;;;;;;107.53;37.72;;;-0.20;99.90;;;;;;5050350;28;20397;-77
2022/01/14 07:12:44;;;;;;;102.82;41.05;;;-0.30;99.90;;;;;;5049265;28;20052;-77
2022/01/14 07:15:12;;;;;;;99.80;39.72;;;0.00;99.90;;;;;;5049075;28;20091;-77
2022/01/14 07:17:39;;;;;;;118.63;38.42;;;1.30;99.90;;;;;;5048765;28;20052;-77
2022/01/14 07:20:10;;;;;;;109.35;36.85;;;-0.20;99.90;;;;;;5050183;28;20035;-77
2022/01/14 07:22:36;;;;;;;109.53;41.60;;;-0.20;99.90;;;;;;5048551;28;20636;-77
2022/01/14 07:25:03;;;;;;;100.28;40.40;;;-0.20;99.90;;;;;;5049415;28;20108;-77
2022/01/14 07:27:29;;;;;;;118.13;39.88;;;-0.20;99.90;;;;;;5051397;28;20036;-78
2022/01/14 07:29:55;;;;;;;113.18;38.70;;;-0.10;99.90;;;;;;5052678;28;20112;-77
2022/01/14 07:32:21;;;;;;;108.32;40.35;;;-0.10;99.90;;;;;;5035201;28;20449;-75
2022/01/14 07:34:47;;;;;;;107.50;40.15;;;-0.10;99.90;;;;;;5052001;28;20071;-76
2022/01/14 07:37:14;;;;;;;116.82;38.78;;;0.00;99.90;;;;;;5052131;28;20067;-76
2022/01/14 07:39:39;;;;;;;116.68;41.10;;;0.90;99.90;;;;;;5051642;28;20029;-76
2022/01/14 07:42:06;;;;;;;116.93;38.00;;;0.00;99.90;;;;;;5051501;28;20048;-76
2022/01/14 07:44:31;;;;;;;111.97;39.40;;;0.00;99.90;;;;;;5050257;28;20432;-76
2022/01/14 07:46:57;;;;;;;121.22;40.47;;;0.00;99.90;;;;;;5050571;28;20037;-76
2022/01/14 07:49:22;;;;;;;106.38;37.75;;;-0.10;99.90;;;;;;5051855;28;20044;-76
2022/01/14 07:51:48;;;;;;;122.25;40.42;;;0.00;99.90;;;;;;5050909;28;20021;-76
2022/01/14 07:54:14;;;;;;;134.38;41.38;;;0.60;99.90;;;;;;5050450;28;20021;-76
2022/01/14 07:56:45;;;;;;;105.10;38.20;;;0.00;99.90;;;;;;5036061;28;20025;-76
2022/01/14 07:59:13;;;;;;;101.43;39.65;;;0.90;99.90;;;;;;5033553;28;20058;-76
2022/01/14 08:01:40;;;;;;;111.18;40.72;;;0.10;99.90;;;;;;5048214;28;20477;-75
2022/01/14 08:04:06;;;;;;;108.80;39.80;;;0.10;99.90;;;;;;5044506;28;20036;-77
2022/01/14 08:06:34;;;;;;;99.45;39.85;;;0.30;99.90;;;;;;5027560;28;20032;-78
2022/01/14 08:09:00;;;;;;;99.20;36.92;;;0.20;99.90;;;;;;5037947;28;20033;-77
2022/01/14 08:11:26;;;;;;;116.05;40.22;;;0.20;99.90;;;;;;5047118;28;20033;-75
2022/01/14 08:13:52;;;;;;;101.43;37.83;;;0.10;99.90;;;;;;5047232;28;20018;-78
2022/01/14 08:16:17;;;;;;;98.97;39.70;;;0.20;99.90;;;;;;5030108;28;20029;-78
2022/01/14 08:18:43;;;;;;;91.40;38.03;;;0.10;99.90;;;;;;5046783;28;20051;-77
2022/01/14 08:21:09;;;;;;;96.80;40.67;;;0.20;99.90;;;;;;5047448;28;20033;-79
2022/01/14 08:23:34;;;;;;;105.30;38.85;;;0.20;99.90;;;;;;5025730;28;20040;-78
2022/01/14 08:26:00;;;;;;;99.70;37.95;;;0.30;99.90;;;;;;5041473;28;20032;-78
2022/01/14 08:28:27;;;;;;;105.25;36.15;;;0.20;99.90;;;;;;5046844;28;20383;-79
2022/01/14 08:30:53;;;;;;;122.05;38.50;;;0.20;99.90;;;;;;5027106;28;20505;-77
2022/01/14 08:33:19;;;;;;;82.43;36.15;;;0.20;99.90;;;;;;5027360;28;20112;-78
2022/01/14 08:35:46;;;;;;;96.30;35.72;;;0.20;99.90;;;;;;5044509;28;20100;-78
2022/01/14 08:38:12;;;;;;;81.55;35.15;;;1.80;99.90;;;;;;5047380;28;20025;-77
2022/01/14 08:40:38;;;;;;;92.28;35.20;;;0.10;99.90;;;;;;5046461;28;20029;-77
2022/01/14 08:43:04;;;;;;;84.57;35.65;;;0.20;99.90;;;;;;5048145;28;20452;-77
2022/01/14 08:45:30;;;;;;;77.88;34.17;;;0.10;99.90;;;;;;5047418;28;20033;-77
2022/01/14 08:47:56;;;;;;;78.00;33.63;;;0.20;99.90;;;;;;5047696;28;20071;-77
2022/01/14 08:50:26;;;;;;;87.35;33.60;;;1.10;99.90;;;;;;5046662;28;20572;-77
2022/01/14 08:52:51;;;;;;;75.57;34.03;;;0.10;99.90;;;;;;5047898;28;20056;-78
2022/01/14 08:55:18;;;;;;;82.55;35.17;;;0.10;99.90;;;;;;5047040;28;20056;-78
2022/01/14 08:57:44;;;;;;;85.55;35.33;;;0.10;99.90;;;;;;5049584;28;20031;-78
2022/01/14 09:00:11;;;;;;;91.65;35.67;;;0.20;99.90;;;;;;5050787;28;20033;-76
2022/01/14 09:02:37;;;;;;;77.88;35.85;;;0.30;99.90;;;;;;5029570;28;20040;-78
2022/01/14 09:05:03;;;;;;;82.55;35.75;;;0.40;99.90;;;;;;5041947;28;20033;-78
2022/01/14 09:07:29;;;;;;;75.15;34.22;;;0.40;99.90;;;;;;5044157;28;20030;-78
2022/01/14 09:09:55;;;;;;;83.30;34.55;;;0.60;99.90;;;;;;5012513;28;20127;-78
2022/01/14 09:12:21;;;;;;;84.75;33.20;;;0.60;99.90;;;;;;5031431;28;20044;-79
2022/01/14 09:14:47;;;;;;;69.78;32.08;;;0.70;99.90;;;;;;5018601;28;20037;-77
2022/01/14 09:17:13;;;;;;;67.78;31.25;;;0.50;99.90;;;;;;5048293;28;20029;-78
2022/01/14 09:19:40;;;;;;;65.22;32.42;;;1.10;99.90;;;;;;5052958;28;20051;-78
2022/01/14 09:22:07;;;;;;;58.30;30.83;;;0.80;99.90;;;;;;5054346;28;20021;-78
2022/01/14 09:24:34;;;;;;;64.43;29.67;;;0.70;99.90;;;;;;5054939;28;20087;-77
2022/01/14 09:27:00;;;;;;;60.35;30.70;;;2.00;99.90;;;;;;5047964;28;20088;-80
2022/01/14 09:29:25;;;;;;;64.90;30.40;;;0.80;99.90;;;;;;5037779;28;20025;-78
2022/01/14 09:31:52;;;;;;;61.42;29.42;;;0.90;99.90;;;;;;5050338;28;20032;-77
2022/01/14 09:34:18;;;;;;;49.72;26.58;;;2.40;99.90;;;;;;5050669;28;20033;-81
2022/01/14 09:36:44;;;;;;;53.00;27.58;;;1.10;99.90;;;;;;5050835;28;20083;-78
2022/01/14 09:39:10;;;;;;;51.85;26.33;;;1.10;99.90;;;;;;5049823;28;20225;-77
2022/01/14 09:41:36;;;;;;;52.65;26.23;;;0.90;99.90;;;;;;5047295;28;20104;-80
2022/01/14 09:44:02;;;;;;;51.20;26.20;;;1.80;99.90;;;;;;5030711;28;20029;-78
2022/01/14 09:46:28;;;;;;;55.97;27.52;;;1.00;99.90;;;;;;5048722;28;20035;-80
2022/01/14 09:48:53;;;;;;;52.55;27.90;;;0.90;99.90;;;;;;5048784;28;20029;-78
2022/01/14 09:51:20;;;;;;;51.28;25.30;;;1.00;99.90;;;;;;5048912;28;20489;-78
2022/01/14 09:53:46;;;;;;;48.95;26.60;;;0.90;99.90;;;;;;5048651;28;20029;-79
2022/01/14 09:56:17;;;;;;;51.55;25.88;;;2.00;99.90;;;;;;5048496;28;20024;-77
2022/01/14 09:58:47;;;;;;;48.83;25.55;;;1.10;99.90;;;;;;5048366;28;20039;-78
2022/01/14 10:01:15;;;;;;;53.78;26.25;;;1.10;99.90;;;;;;5047231;28;20603;-77
2022/01/14 10:04:01;;;;;;;47.17;27.10;;;1.20;99.90;;;;;;5010315;28;20398;-79
2022/01/14 10:06:54;;;;;;;52.08;26.95;;;0.90;99.90;;;;;;5028708;28;20056;-78
2022/01/14 10:09:40;;;;;;;48.03;26.40;;;1.30;99.90;;;;;;5027371;28;20088;-79
2022/01/14 10:12:13;;;;;;;48.17;26.35;;;1.50;99.90;;;;;;5028100;28;20033;-78
2022/01/14 10:15:00;;;;;;;41.08;24.90;;;1.70;99.90;;;;;;5039575;28;20083;-77
2022/01/14 10:17:35;;;;;;;46.20;24.05;;;1.90;99.90;;;;;;5049629;28;20037;-77
2022/01/14 10:20:03;;;;;;;45.15;24.38;;;2.00;99.90;;;;;;5047683;28;20497;-77
2022/01/14 10:22:34;;;;;;;42.28;22.63;;;2.20;99.90;;;;;;5049149;28;20029;-77
2022/01/14 10:25:05;;;;;;;43.58;23.10;;;2.20;99.90;;;;;;5049324;28;20021;-77
2022/01/14 10:27:52;;;;;;;39.47;22.55;;;2.30;99.90;;;;;;5049735;28;20078;-76
2022/01/14 10:30:21;;;;;;;43.17;23.73;;;2.30;99.90;;;;;;5046462;28;20383;-80
2022/01/14 10:32:56;;;;;;;40.42;23.05;;;2.40;99.90;;;;;;5050131;28;20021;-77
2022/01/14 10:35:24;;;;;;;45.78;23.90;;;2.10;99.90;;;;;;5053317;28;20025;-76
2022/01/14 10:37:49;;;;;;;47.72;24.77;;;1.90;99.90;;;;;;5053309;28;20033;-75
2022/01/14 10:40:21;;;;;;;47.50;25.70;;;2.20;99.90;;;;;;5052394;28;20086;-79
2022/01/14 10:42:58;;;;;;;48.15;25.58;;;4.40;99.90;;;;;;5053674;28;20060;-76
2022/01/14 10:45:27;;;;;;;45.65;23.83;;;2.10;99.90;;;;;;5052406;28;20120;-78
2022/01/14 10:47:57;;;;;;;40.50;23.55;;;2.10;99.90;;;;;;5053171;28;20438;-78
2022/01/14 10:50:52;;;;;;;44.17;23.88;;;2.10;99.90;;;;;;5052671;28;20044;-78
2022/01/14 10:53:22;;;;;;;48.72;24.70;;;2.10;99.90;;;;;;5053409;28;20020;-78
2022/01/14 10:55:57;;;;;;;45.45;25.38;;;2.30;99.90;;;;;;5051986;28;20519;-76
2022/01/14 10:58:24;;;;;;;44.55;24.90;;;2.10;99.90;;;;;;5052576;28;20523;-77
2022/01/14 11:00:55;;;;;;;48.85;25.70;;;2.30;99.90;;;;;;5050772;28;20060;-77
2022/01/14 11:03:38;;;;;;;44.25;25.83;;;2.10;99.90;;;;;;5051604;28;20400;-77
2022/01/14 11:06:16;;;;;;;49.28;27.10;;;2.20;99.90;;;;;;5033021;28;20037;-78
2022/01/14 11:08:42;;;;;;;43.88;26.20;;;2.20;99.90;;;;;;5032076;28;20033;-77
2022/01/14 11:11:08;;;;;;;46.80;25.98;;;2.20;99.90;;;;;;5039648;28;20033;-78
2022/01/14 11:13:35;;;;;;;44.38;23.95;;;2.30;99.90;;;;;;5051656;28;20551;-77
2022/01/14 11:16:00;;;;;;;47.83;25.63;;;2.50;99.90;;;;;;5051006;28;20029;-77
2022/01/14 11:18:27;;;;;;;39.50;23.15;;;2.70;99.90;;;;;;5051889;28;20074;-77
2022/01/14 11:23:37;;;;;;;41.72;23.60;;;2.80;99.90;;;;;;5052636;28;20032;-79
2022/01/14 11:26:06;;;;;;;43.45;23.10;;;3.10;99.90;;;;;;5052326;28;20037;-77
2022/01/14 11:28:34;;;;;;;37.70;22.92;;;3.30;99.90;;;;;;5050650;28;20036;-80
2022/01/14 11:31:00;;;;;;;42.20;23.05;;;3.80;99.90;;;;;;5050419;28;20111;-80
2022/01/14 11:33:40;;;;;;;37.45;22.13;;;4.40;99.90;;;;;;5051380;28;20053;-77
2022/01/14 11:36:07;;;;;;;35.45;20.25;;;5.10;99.90;;;;;;5052435;28;20021;-78
2022/01/14 11:38:43;;;;;;;38.00;21.70;;;5.00;99.90;;;;;;5051784;28;20020;-78
2022/01/14 11:41:13;;;;;;;37.05;23.08;;;4.70;99.90;;;;;;5050342;28;20021;-77
2022/01/14 11:43:49;;;;;;;37.60;21.65;;;5.00;99.90;;;;;;5052046;28;20047;-77
2022/01/14 11:46:35;;;;;;;34.80;21.42;;;5.60;99.90;;;;;;5031917;28;20025;-77
2022/01/14 11:49:33;;;;;;;35.50;20.83;;;8.20;99.90;;;;;;5031321;28;20212;-78
2022/01/14 11:52:00;;;;;;;32.72;20.45;;;8.20;99.90;;;;;;5047632;28;20555;-79
2022/01/14 11:54:43;;;;;;;32.40;20.42;;;9.20;99.90;;;;;;5050609;28;20124;-75
2022/01/14 11:57:10;;;;;;;38.47;23.50;;;9.50;99.90;;;;;;5034018;28;20032;-76
2022/01/14 11:59:37;;;;;;;31.60;20.23;;;11.30;99.90;;;;;;5050854;28;20025;-76
2022/01/14 12:02:27;;;;;;;58.33;31.92;;;10.60;99.90;;;;;;5049836;28;20048;-78
2022/01/14 12:05:14;;;;;;;38.30;21.20;;;9.30;99.90;;;;;;5051815;28;20139;-76
2022/01/14 12:08:01;;;;;;;32.70;20.17;;;10.30;99.90;;;;;;5051764;28;20025;-76
2022/01/14 12:10:31;;;;;;;35.45;20.27;;;9.20;99.90;;;;;;5050623;28;20473;-76
2022/01/14 12:13:23;;;;;;;36.20;21.08;;;9.50;99.90;;;;;;5036131;28;20045;-77
2022/01/14 12:15:57;;;;;;;30.70;20.38;;;9.90;99.90;;;;;;5052107;28;20071;-77
2022/01/14 12:18:57;;;;;;;31.02;19.83;;;10.50;99.90;;;;;;5050589;28;20032;-77
2022/01/14 12:21:38;;;;;;;32.70;20.08;;;10.90;99.90;;;;;;5051818;28;20025;-78
2022/01/14 12:24:34;;;;;;;33.70;20.30;;;12.30;99.40;;;;;;5053372;28;20033;-77
2022/01/14 12:29:49;;;;;;;32.63;19.35;;;12.00;95.40;;;;;;5042489;28;20033;-77
2022/01/14 12:32:28;;;;;;;32.85;20.52;;;12.60;96.00;;;;;;5052915;28;20108;-77
2022/01/14 12:34:56;;;;;;;31.23;19.88;;;11.90;95.60;;;;;;5056278;28;20044;-77
2022/01/14 12:37:31;;;;;;;33.53;20.27;;;14.10;95.90;;;;;;5055488;28;20021;-77
2022/01/14 12:40:01;;;;;;;33.92;21.23;;;12.40;94.40;;;;;;5059174;28;20067;-77
2022/01/14 12:42:27;;;;;;;33.38;21.02;;;11.90;95.80;;;;;;5062050;28;20025;-78
2022/01/14 12:44:53;;;;;;;34.65;21.70;;;12.00;96.00;;;;;;5058699;28;20035;-77
2022/01/14 12:47:33;;;;;;;38.08;22.77;;;11.50;96.90;;;;;;5060661;28;20013;-77
2022/01/14 12:50:11;;;;;;;38.08;22.58;;;13.20;97.30;;;;;;5057778;28;20477;-77
2022/01/14 12:52:48;;;;;;;35.72;21.20;;;11.60;97.50;;;;;;5057508;28;20017;-77
2022/01/14 12:55:14;;;;;;;33.92;21.25;;;11.60;97.90;;;;;;5061828;28;20081;-78
2022/01/14 12:57:40;;;;;;;31.10;20.08;;;12.00;96.10;;;;;;5059421;28;20485;-77
2022/01/14 13:00:08;;;;;;;33.30;21.60;;;12.60;97.40;;;;;;5041153;28;20038;-77
2022/01/14 13:02:34;;;;;;;30.10;19.13;;;12.20;95.60;;;;;;5059147;28;20029;-77
2022/01/14 13:05:05;;;;;;;30.75;18.85;;;12.70;94.90;;;;;;5060223;28;20123;-78
2022/01/14 13:07:32;;;;;;;32.38;19.58;;;13.20;93.50;;;;;;5061572;28;20033;-77